sensor_id;sensor_type;location;lat;lon;timestamp;pressure;altitude;pressure_sealevel;temperature;humidity
76753;BME280;65687;51.308;16.916;2022-12-18T00:00:20;101287.82;;;-5.66;82.19
76753;BME280;65687;51.308;16.916;2022-12-18T00:05:49;101285.02;;;-5.70;82.32
76753;BME280;65687;51.308;16.916;2022-12-18T00:10:52;101291.48;;;-5.72;82.39
76753;BME280;65687;51.308;16.916;2022-12-18T00:15:53;101291.55;;;-5.77;82.62
76753;BME280;65687;51.308;16.916;2022-12-18T00:20:59;101297.28;;;-5.79;82.71
76753;BME280;65687;51.308;16.916;2022-12-18T00:26:06;101295.03;;;-5.70;82.64
76753;BME280;65687;51.308;16.916;2022-12-18T00:31:11;101303.91;;;-5.58;82.85
76753;BME280;65687;51.308;16.916;2022-12-18T00:36:19;101308.80;;;-5.48;82.41
76753;BME280;65687;51.308;16.916;2022-12-18T00:41:21;101312.89;;;-5.40;82.41
76753;BME280;65687;51.308;16.916;2022-12-18T00:46:43;101319.63;;;-5.48;82.26
76753;BME280;65687;51.308;16.916;2022-12-18T00:51:45;101327.47;;;-5.51;82.61
76753;BME280;65687;51.308;16.916;2022-12-18T00:56:47;101335.45;;;-5.52;82.52
76753;BME280;65687;51.308;16.916;2022-12-18T01:01:49;101348.44;;;-5.57;83.00
76753;BME280;65687;51.308;16.916;2022-12-18T01:06:51;101355.19;;;-5.54;82.97
76753;BME280;65687;51.308;16.916;2022-12-18T01:11:53;101354.99;;;-5.45;82.81
76753;BME280;65687;51.308;16.916;2022-12-18T01:16:55;101357.76;;;-5.30;82.78
76753;BME280;65687;51.308;16.916;2022-12-18T01:21:56;101361.00;;;-5.23;82.66
76753;BME280;65687;51.308;16.916;2022-12-18T01:26:59;101365.68;;;-5.18;82.43
76753;BME280;65687;51.308;16.916;2022-12-18T01:32:00;101373.61;;;-5.14;82.23
76753;BME280;65687;51.308;16.916;2022-12-18T01:37:03;101385.88;;;-5.24;82.25
76753;BME280;65687;51.308;16.916;2022-12-18T01:42:12;101385.67;;;-5.34;82.47
76753;BME280;65687;51.308;16.916;2022-12-18T01:52:32;101388.52;;;-5.39;83.06
76753;BME280;65687;51.308;16.916;2022-12-18T01:57:35;101392.16;;;-5.26;82.70
76753;BME280;65687;51.308;16.916;2022-12-18T02:02:37;101395.96;;;-5.16;82.37
76753;BME280;65687;51.308;16.916;2022-12-18T02:18:32;101400.06;;;-5.15;82.49
76753;BME280;65687;51.308;16.916;2022-12-18T02:23:44;101400.59;;;-5.21;82.58
76753;BME280;65687;51.308;16.916;2022-12-18T02:28:55;101414.44;;;-5.27;82.68
76753;BME280;65687;51.308;16.916;2022-12-18T02:34:02;101418.71;;;-5.34;82.96
76753;BME280;65687;51.308;16.916;2022-12-18T02:39:07;101420.08;;;-5.36;83.05
76753;BME280;65687;51.308;16.916;2022-12-18T02:44:12;101421.63;;;-5.36;82.96
76753;BME280;65687;51.308;16.916;2022-12-18T02:54:40;101418.91;;;-5.16;82.59
76753;BME280;65687;51.308;16.916;2022-12-18T03:00:00;101419.48;;;-5.10;82.84
76753;BME280;65687;51.308;16.916;2022-12-18T03:05:36;101417.74;;;-5.06;82.57
76753;BME280;65687;51.308;16.916;2022-12-18T03:10:41;101416.19;;;-5.02;82.67
76753;BME280;65687;51.308;16.916;2022-12-18T03:15:47;101422.12;;;-5.04;82.54
76753;BME280;65687;51.308;16.916;2022-12-18T03:20:51;101433.45;;;-5.08;82.66
76753;BME280;65687;51.308;16.916;2022-12-18T03:26:00;101436.14;;;-5.09;82.72
76753;BME280;65687;51.308;16.916;2022-12-18T03:31:04;101441.92;;;-5.04;82.46
76753;BME280;65687;51.308;16.916;2022-12-18T03:36:07;101436.28;;;-4.96;82.34
76753;BME280;65687;51.308;16.916;2022-12-18T03:41:24;101439.98;;;-4.92;82.34
76753;BME280;65687;51.308;16.916;2022-12-18T03:51:44;101441.88;;;-5.00;82.33
76753;BME280;65687;51.308;16.916;2022-12-18T03:56:57;101444.61;;;-5.05;82.35
76753;BME280;65687;51.308;16.916;2022-12-18T04:02:01;101448.90;;;-5.09;82.53
76753;BME280;65687;51.308;16.916;2022-12-18T04:07:04;101453.66;;;-5.12;82.48
76753;BME280;65687;51.308;16.916;2022-12-18T04:12:08;101461.31;;;-5.07;82.41
76753;BME280;65687;51.308;16.916;2022-12-18T04:17:10;101465.60;;;-5.04;82.29
76753;BME280;65687;51.308;16.916;2022-12-18T04:22:11;101460.79;;;-5.15;82.46
76753;BME280;65687;51.308;16.916;2022-12-18T04:27:13;101475.18;;;-5.21;82.53
76753;BME280;65687;51.308;16.916;2022-12-18T04:32:15;101487.13;;;-5.30;82.72
76753;BME280;65687;51.308;16.916;2022-12-18T04:37:17;101493.05;;;-5.33;82.89
76753;BME280;65687;51.308;16.916;2022-12-18T04:42:19;101496.85;;;-5.27;82.84
76753;BME280;65687;51.308;16.916;2022-12-18T04:47:21;101502.16;;;-5.15;82.90
76753;BME280;65687;51.308;16.916;2022-12-18T04:52:23;101515.42;;;-5.13;82.83
76753;BME280;65687;51.308;16.916;2022-12-18T04:57:25;101517.83;;;-5.27;82.75
76753;BME280;65687;51.308;16.916;2022-12-18T05:02:27;101513.48;;;-5.30;82.69
76753;BME280;65687;51.308;16.916;2022-12-18T05:07:29;101516.92;;;-5.35;83.08
76753;BME280;65687;51.308;16.916;2022-12-18T05:12:31;101516.71;;;-5.39;83.24
76753;BME280;65687;51.308;16.916;2022-12-18T05:17:33;101523.66;;;-5.41;83.15
76753;BME280;65687;51.308;16.916;2022-12-18T05:22:34;101520.92;;;-5.40;83.30
76753;BME280;65687;51.308;16.916;2022-12-18T05:27:36;101525.98;;;-5.43;83.43
76753;BME280;65687;51.308;16.916;2022-12-18T05:32:39;101531.19;;;-5.38;83.38
76753;BME280;65687;51.308;16.916;2022-12-18T05:37:41;101529.79;;;-5.31;83.24
76753;BME280;65687;51.308;16.916;2022-12-18T05:42:43;101532.02;;;-5.25;83.08
76753;BME280;65687;51.308;16.916;2022-12-18T05:47:45;101551.93;;;-5.23;82.86
76753;BME280;65687;51.308;16.916;2022-12-18T05:52:46;101567.09;;;-5.26;82.76
76753;BME280;65687;51.308;16.916;2022-12-18T05:57:48;101571.59;;;-5.32;82.89
76753;BME280;65687;51.308;16.916;2022-12-18T06:02:50;101571.34;;;-5.36;82.89
76753;BME280;65687;51.308;16.916;2022-12-18T06:07:52;101576.51;;;-5.37;83.21
76753;BME280;65687;51.308;16.916;2022-12-18T06:12:54;101583.24;;;-5.41;83.10
76753;BME280;65687;51.308;16.916;2022-12-18T06:17:56;101588.95;;;-5.47;83.36
76753;BME280;65687;51.308;16.916;2022-12-18T06:22:57;101590.23;;;-5.45;83.14
76753;BME280;65687;51.308;16.916;2022-12-18T06:27:59;101598.58;;;-5.33;83.10
76753;BME280;65687;51.308;16.916;2022-12-18T06:33:01;101603.85;;;-5.20;82.74
76753;BME280;65687;51.308;16.916;2022-12-18T06:38:03;101608.92;;;-5.23;82.67
76753;BME280;65687;51.308;16.916;2022-12-18T06:43:05;101612.94;;;-5.28;82.40
76753;BME280;65687;51.308;16.916;2022-12-18T06:48:07;101626.95;;;-5.33;82.75
76753;BME280;65687;51.308;16.916;2022-12-18T06:53:09;101632.52;;;-5.33;82.80
76753;BME280;65687;51.308;16.916;2022-12-18T06:58:11;101634.53;;;-5.41;82.56
76753;BME280;65687;51.308;16.916;2022-12-18T07:03:12;101645.54;;;-5.52;82.35
76753;BME280;65687;51.308;16.916;2022-12-18T07:08:14;101646.98;;;-5.54;82.21
76753;BME280;65687;51.308;16.916;2022-12-18T07:13:16;101648.77;;;-5.40;82.37
76753;BME280;65687;51.308;16.916;2022-12-18T07:18:19;101649.89;;;-5.34;81.91
76753;BME280;65687;51.308;16.916;2022-12-18T07:23:20;101646.77;;;-5.37;81.91
76753;BME280;65687;51.308;16.916;2022-12-18T07:28:22;101651.40;;;-5.43;81.66
76753;BME280;65687;51.308;16.916;2022-12-18T07:33:25;101656.15;;;-5.54;81.85
76753;BME280;65687;51.308;16.916;2022-12-18T07:38:27;101669.13;;;-5.59;82.13
76753;BME280;65687;51.308;16.916;2022-12-18T07:43:29;101672.08;;;-5.65;82.24
76753;BME280;65687;51.308;16.916;2022-12-18T07:48:32;101678.98;;;-5.70;82.47
76753;BME280;65687;51.308;16.916;2022-12-18T07:53:34;101683.04;;;-5.72;82.24
76753;BME280;65687;51.308;16.916;2022-12-18T07:58:37;101688.82;;;-5.65;82.11
76753;BME280;65687;51.308;16.916;2022-12-18T08:03:40;101695.53;;;-5.67;82.00
76753;BME280;65687;51.308;16.916;2022-12-18T08:08:42;101703.61;;;-5.71;81.92
76753;BME280;65687;51.308;16.916;2022-12-18T08:13:43;101700.23;;;-5.72;82.05
76753;BME280;65687;51.308;16.916;2022-12-18T08:18:45;101705.45;;;-5.75;82.04
76753;BME280;65687;51.308;16.916;2022-12-18T08:23:47;101717.85;;;-5.71;82.09
76753;BME280;65687;51.308;16.916;2022-12-18T08:28:50;101730.42;;;-5.66;81.69
76753;BME280;65687;51.308;16.916;2022-12-18T08:33:53;101733.85;;;-5.63;81.84
76753;BME280;65687;51.308;16.916;2022-12-18T08:38:56;101732.98;;;-5.63;81.77
76753;BME280;65687;51.308;16.916;2022-12-18T08:43:58;101741.17;;;-5.67;81.96
76753;BME280;65687;51.308;16.916;2022-12-18T08:49:19;101740.58;;;-5.68;82.18
76753;BME280;65687;51.308;16.916;2022-12-18T08:54:21;101751.56;;;-5.69;82.00
76753;BME280;65687;51.308;16.916;2022-12-18T08:59:23;101762.17;;;-5.73;81.85
76753;BME280;65687;51.308;16.916;2022-12-18T09:04:25;101747.60;;;-5.71;81.80
76753;BME280;65687;51.308;16.916;2022-12-18T09:09:26;101730.24;;;-5.69;81.48
76753;BME280;65687;51.308;16.916;2022-12-18T09:14:28;101720.16;;;-5.76;81.65
76753;BME280;65687;51.308;16.916;2022-12-18T09:19:30;101716.59;;;-5.74;81.74
76753;BME280;65687;51.308;16.916;2022-12-18T09:24:32;101709.43;;;-5.72;81.67
76753;BME280;65687;51.308;16.916;2022-12-18T09:35:40;101700.17;;;-5.66;81.46
76753;BME280;65687;51.308;16.916;2022-12-18T09:40:53;101690.43;;;-5.69;81.32
76753;BME280;65687;51.308;16.916;2022-12-18T09:46:02;101684.91;;;-5.70;81.18
76753;BME280;65687;51.308;16.916;2022-12-18T09:51:17;101693.80;;;-5.61;81.26
76753;BME280;65687;51.308;16.916;2022-12-18T09:56:21;101690.60;;;-5.57;80.99
76753;BME280;65687;51.308;16.916;2022-12-18T10:01:25;101687.89;;;-5.54;81.23
76753;BME280;65687;51.308;16.916;2022-12-18T10:06:44;101692.85;;;-5.57;81.27
76753;BME280;65687;51.308;16.916;2022-12-18T10:17:30;101706.45;;;-5.59;80.88
76753;BME280;65687;51.308;16.916;2022-12-18T10:27:39;101702.87;;;-5.70;80.76
76753;BME280;65687;51.308;16.916;2022-12-18T10:32:41;101701.52;;;-5.65;80.70
76753;BME280;65687;51.308;16.916;2022-12-18T10:38:06;101706.69;;;-5.60;80.71
76753;BME280;65687;51.308;16.916;2022-12-18T10:43:13;101696.65;;;-5.58;81.02
76753;BME280;65687;51.308;16.916;2022-12-18T10:48:22;101697.48;;;-5.55;80.86
76753;BME280;65687;51.308;16.916;2022-12-18T10:53:27;101695.69;;;-5.52;81.16
76753;BME280;65687;51.308;16.916;2022-12-18T10:58:35;101705.53;;;-5.50;80.94
76753;BME280;65687;51.308;16.916;2022-12-18T11:03:40;101712.50;;;-5.40;80.99
76753;BME280;65687;51.308;16.916;2022-12-18T11:08:56;101715.34;;;-5.35;80.34
76753;BME280;65687;51.308;16.916;2022-12-18T11:19:38;101726.59;;;-5.36;80.56
76753;BME280;65687;51.308;16.916;2022-12-18T11:24:41;101729.88;;;-5.35;80.46
76753;BME280;65687;51.308;16.916;2022-12-18T11:29:43;101732.14;;;-5.41;80.37
76753;BME280;65687;51.308;16.916;2022-12-18T11:34:49;101722.46;;;-5.31;80.48
76753;BME280;65687;51.308;16.916;2022-12-18T11:39:56;101703.26;;;-5.23;80.36
76753;BME280;65687;51.308;16.916;2022-12-18T11:50:24;101701.38;;;-5.37;80.14
76753;BME280;65687;51.308;16.916;2022-12-18T11:55:48;101685.86;;;-5.33;80.64
76753;BME280;65687;51.308;16.916;2022-12-18T12:06:32;101697.91;;;-5.34;79.92
76753;BME280;65687;51.308;16.916;2022-12-18T12:17:00;101694.66;;;-5.56;80.01
76753;BME280;65687;51.308;16.916;2022-12-18T12:27:37;101700.85;;;-5.56;80.67
76753;BME280;65687;51.308;16.916;2022-12-18T12:38:17;101698.07;;;-5.55;80.33
76753;BME280;65687;51.308;16.916;2022-12-18T12:43:41;101697.36;;;-5.51;80.58
76753;BME280;65687;51.308;16.916;2022-12-18T12:49:04;101695.73;;;-5.50;80.68
76753;BME280;65687;51.308;16.916;2022-12-18T12:54:23;101693.30;;;-5.42;80.42
76753;BME280;65687;51.308;16.916;2022-12-18T13:04:42;101689.10;;;-5.49;80.45
76753;BME280;65687;51.308;16.916;2022-12-18T13:15:49;101685.33;;;-5.55;80.53
76753;BME280;65687;51.308;16.916;2022-12-18T13:21:28;101679.65;;;-5.47;80.28
76753;BME280;65687;51.308;16.916;2022-12-18T13:26:31;101667.06;;;-5.43;80.16
76753;BME280;65687;51.308;16.916;2022-12-18T13:36:41;101697.10;;;-5.57;80.33
76753;BME280;65687;51.308;16.916;2022-12-18T13:41:45;101700.46;;;-5.62;80.27
76753;BME280;65687;51.308;16.916;2022-12-18T13:46:50;101713.48;;;-5.58;80.41
76753;BME280;65687;51.308;16.916;2022-12-18T13:51:54;101711.04;;;-5.55;80.32
76753;BME280;65687;51.308;16.916;2022-12-18T13:56:56;101710.91;;;-5.55;80.15
76753;BME280;65687;51.308;16.916;2022-12-18T14:02:01;101714.84;;;-5.61;80.14
76753;BME280;65687;51.308;16.916;2022-12-18T14:07:07;101716.15;;;-5.57;80.26
76753;BME280;65687;51.308;16.916;2022-12-18T14:12:24;101722.39;;;-5.56;79.97
76753;BME280;65687;51.308;16.916;2022-12-18T14:17:46;101727.11;;;-5.60;80.10
76753;BME280;65687;51.308;16.916;2022-12-18T14:22:49;101731.37;;;-5.66;80.45
76753;BME280;65687;51.308;16.916;2022-12-18T14:28:04;101736.95;;;-5.72;80.50
76753;BME280;65687;51.308;16.916;2022-12-18T14:33:17;101750.61;;;-5.78;80.49
76753;BME280;65687;51.308;16.916;2022-12-18T14:43:36;101751.59;;;-5.78;80.62
76753;BME280;65687;51.308;16.916;2022-12-18T14:48:42;101749.34;;;-5.80;80.63
76753;BME280;65687;51.308;16.916;2022-12-18T14:53:46;101747.25;;;-5.83;80.81
76753;BME280;65687;51.308;16.916;2022-12-18T14:58:51;101753.01;;;-5.89;80.98
76753;BME280;65687;51.308;16.916;2022-12-18T15:03:55;101751.20;;;-5.95;81.19
76753;BME280;65687;51.308;16.916;2022-12-18T15:08:59;101749.02;;;-5.91;81.06
76753;BME280;65687;51.308;16.916;2022-12-18T15:19:35;101742.31;;;-6.04;81.38
76753;BME280;65687;51.308;16.916;2022-12-18T15:24:38;101746.23;;;-6.06;81.37
76753;BME280;65687;51.308;16.916;2022-12-18T15:29:40;101749.58;;;-6.00;81.30
76753;BME280;65687;51.308;16.916;2022-12-18T15:34:42;101744.83;;;-6.03;81.23
76753;BME280;65687;51.308;16.916;2022-12-18T15:39:44;101740.73;;;-6.12;81.59
76753;BME280;65687;51.308;16.916;2022-12-18T15:44:45;101725.05;;;-6.21;81.56
76753;BME280;65687;51.308;16.916;2022-12-18T15:49:48;101711.88;;;-6.21;81.74
76753;BME280;65687;51.308;16.916;2022-12-18T15:54:49;101710.70;;;-6.25;81.55
76753;BME280;65687;51.308;16.916;2022-12-18T16:00:12;101702.17;;;-6.32;81.80
76753;BME280;65687;51.308;16.916;2022-12-18T16:05:15;101691.30;;;-6.38;81.73
76753;BME280;65687;51.308;16.916;2022-12-18T16:10:18;101687.28;;;-6.43;81.91
76753;BME280;65687;51.308;16.916;2022-12-18T16:15:21;101683.44;;;-6.48;82.18
76753;BME280;65687;51.308;16.916;2022-12-18T16:20:23;101695.27;;;-6.48;82.23
76753;BME280;65687;51.308;16.916;2022-12-18T16:25:27;101693.77;;;-6.57;82.30
76753;BME280;65687;51.308;16.916;2022-12-18T16:30:30;101687.02;;;-6.65;82.57
76753;BME280;65687;51.308;16.916;2022-12-18T16:35:32;101684.20;;;-6.68;82.57
76753;BME280;65687;51.308;16.916;2022-12-18T16:40:34;101677.20;;;-6.60;82.53
76753;BME280;65687;51.308;16.916;2022-12-18T16:45:58;101671.08;;;-6.62;82.53
76753;BME280;65687;51.308;16.916;2022-12-18T16:51:04;101669.91;;;-6.72;82.77
76753;BME280;65687;51.308;16.916;2022-12-18T16:56:06;101665.11;;;-6.76;82.82
76753;BME280;65687;51.308;16.916;2022-12-18T17:01:09;101665.86;;;-6.79;82.71
76753;BME280;65687;51.308;16.916;2022-12-18T17:06:11;101670.15;;;-6.86;82.77
76753;BME280;65687;51.308;16.916;2022-12-18T17:11:14;101692.40;;;-6.94;82.79
76753;BME280;65687;51.308;16.916;2022-12-18T17:16:16;101689.06;;;-6.98;82.91
76753;BME280;65687;51.308;16.916;2022-12-18T17:21:20;101686.10;;;-7.01;83.08
76753;BME280;65687;51.308;16.916;2022-12-18T17:26:22;101686.11;;;-7.08;83.41
76753;BME280;65687;51.308;16.916;2022-12-18T17:31:26;101695.49;;;-7.13;83.41
76753;BME280;65687;51.308;16.916;2022-12-18T17:36:28;101710.59;;;-7.13;83.54
76753;BME280;65687;51.308;16.916;2022-12-18T17:41:33;101700.75;;;-7.12;83.52
76753;BME280;65687;51.308;16.916;2022-12-18T17:46:35;101702.98;;;-7.14;83.29
76753;BME280;65687;51.308;16.916;2022-12-18T17:51:37;101704.79;;;-7.18;83.20
76753;BME280;65687;51.308;16.916;2022-12-18T17:56:39;101700.49;;;-7.17;83.22
76753;BME280;65687;51.308;16.916;2022-12-18T18:01:41;101714.45;;;-7.13;83.12
76753;BME280;65687;51.308;16.916;2022-12-18T18:06:43;101717.70;;;-7.11;82.96
76753;BME280;65687;51.308;16.916;2022-12-18T18:11:45;101714.93;;;-7.19;83.05
76753;BME280;65687;51.308;16.916;2022-12-18T18:17:05;101711.94;;;-7.21;83.04
76753;BME280;65687;51.308;16.916;2022-12-18T18:22:07;101706.02;;;-7.14;83.00
76753;BME280;65687;51.308;16.916;2022-12-18T18:27:09;101695.27;;;-7.17;83.05
76753;BME280;65687;51.308;16.916;2022-12-18T18:32:11;101684.47;;;-7.20;82.98
76753;BME280;65687;51.308;16.916;2022-12-18T18:37:13;101679.19;;;-7.23;83.01
76753;BME280;65687;51.308;16.916;2022-12-18T18:42:15;101668.17;;;-7.20;82.87
76753;BME280;65687;51.308;16.916;2022-12-18T18:47:16;101670.99;;;-7.16;82.84
76753;BME280;65687;51.308;16.916;2022-12-18T18:52:18;101678.29;;;-7.20;82.84
76753;BME280;65687;51.308;16.916;2022-12-18T18:57:20;101684.53;;;-7.24;82.99
76753;BME280;65687;51.308;16.916;2022-12-18T19:02:22;101681.11;;;-7.23;82.53
76753;BME280;65687;51.308;16.916;2022-12-18T19:07:24;101681.28;;;-7.26;82.72
76753;BME280;65687;51.308;16.916;2022-12-18T19:12:26;101687.70;;;-7.36;82.83
76753;BME280;65687;51.308;16.916;2022-12-18T19:17:47;101685.55;;;-7.41;82.99
76753;BME280;65687;51.308;16.916;2022-12-18T19:22:49;101678.34;;;-7.39;82.73
76753;BME280;65687;51.308;16.916;2022-12-18T19:27:52;101681.04;;;-7.41;82.83
76753;BME280;65687;51.308;16.916;2022-12-18T19:32:53;101682.45;;;-7.44;82.89
76753;BME280;65687;51.308;16.916;2022-12-18T19:37:56;101666.42;;;-7.50;82.81
76753;BME280;65687;51.308;16.916;2022-12-18T19:42:58;101661.20;;;-7.48;82.99
76753;BME280;65687;51.308;16.916;2022-12-18T19:47:59;101659.51;;;-7.49;82.60
76753;BME280;65687;51.308;16.916;2022-12-18T19:53:01;101648.29;;;-7.54;82.86
76753;BME280;65687;51.308;16.916;2022-12-18T19:58:03;101649.23;;;-7.50;82.67
76753;BME280;65687;51.308;16.916;2022-12-18T20:03:05;101642.61;;;-7.48;82.43
76753;BME280;65687;51.308;16.916;2022-12-18T20:08:07;101647.32;;;-7.53;82.51
76753;BME280;65687;51.308;16.916;2022-12-18T20:13:09;101640.59;;;-7.56;82.43
76753;BME280;65687;51.308;16.916;2022-12-18T20:18:11;101644.24;;;-7.57;82.63
76753;BME280;65687;51.308;16.916;2022-12-18T20:23:13;101660.25;;;-7.55;82.42
76753;BME280;65687;51.308;16.916;2022-12-18T20:28:15;101653.09;;;-7.61;82.12
76753;BME280;65687;51.308;16.916;2022-12-18T20:33:17;101651.48;;;-7.60;82.54
76753;BME280;65687;51.308;16.916;2022-12-18T20:38:19;101652.91;;;-7.61;82.20
76753;BME280;65687;51.308;16.916;2022-12-18T20:43:21;101649.66;;;-7.64;82.47
76753;BME280;65687;51.308;16.916;2022-12-18T20:48:23;101653.20;;;-7.67;82.36
76753;BME280;65687;51.308;16.916;2022-12-18T20:53:25;101649.13;;;-7.64;82.13
76753;BME280;65687;51.308;16.916;2022-12-18T20:58:27;101648.20;;;-7.66;81.89
76753;BME280;65687;51.308;16.916;2022-12-18T21:03:28;101648.23;;;-7.74;82.22
76753;BME280;65687;51.308;16.916;2022-12-18T21:08:30;101649.48;;;-7.74;82.07
76753;BME280;65687;51.308;16.916;2022-12-18T21:13:32;101650.13;;;-7.73;82.00
76753;BME280;65687;51.308;16.916;2022-12-18T21:18:34;101651.08;;;-7.76;81.78
76753;BME280;65687;51.308;16.916;2022-12-18T21:23:36;101648.63;;;-7.80;81.78
76753;BME280;65687;51.308;16.916;2022-12-18T21:28:38;101651.61;;;-7.79;81.96
76753;BME280;65687;51.308;16.916;2022-12-18T21:33:40;101636.78;;;-7.75;81.62
76753;BME280;65687;51.308;16.916;2022-12-18T21:38:41;101629.27;;;-7.70;81.47
76753;BME280;65687;51.308;16.916;2022-12-18T21:43:43;101622.59;;;-7.68;81.22
76753;BME280;65687;51.308;16.916;2022-12-18T21:49:05;101596.99;;;-7.63;81.32
76753;BME280;65687;51.308;16.916;2022-12-18T21:54:07;101574.44;;;-7.65;81.28
76753;BME280;65687;51.308;16.916;2022-12-18T21:59:10;101561.13;;;-7.64;81.30
76753;BME280;65687;51.308;16.916;2022-12-18T22:04:13;101565.89;;;-7.63;81.32
76753;BME280;65687;51.308;16.916;2022-12-18T22:09:17;101565.96;;;-7.62;81.41
76753;BME280;65687;51.308;16.916;2022-12-18T22:14:20;101571.15;;;-7.59;81.29
76753;BME280;65687;51.308;16.916;2022-12-18T22:19:23;101566.27;;;-7.54;81.12
76753;BME280;65687;51.308;16.916;2022-12-18T22:24:27;101557.04;;;-7.54;80.93
76753;BME280;65687;51.308;16.916;2022-12-18T22:29:29;101554.76;;;-7.60;81.04
76753;BME280;65687;51.308;16.916;2022-12-18T22:34:50;101550.20;;;-7.60;81.02
76753;BME280;65687;51.308;16.916;2022-12-18T22:39:51;101558.84;;;-7.59;80.71
76753;BME280;65687;51.308;16.916;2022-12-18T22:44:53;101543.72;;;-7.64;80.90
76753;BME280;65687;51.308;16.916;2022-12-18T22:49:55;101523.64;;;-7.66;81.11
76753;BME280;65687;51.308;16.916;2022-12-18T22:54:57;101502.14;;;-7.69;81.06
76753;BME280;65687;51.308;16.916;2022-12-18T22:59:59;101503.02;;;-7.66;81.00
76753;BME280;65687;51.308;16.916;2022-12-18T23:05:01;101506.36;;;-7.62;80.51
76753;BME280;65687;51.308;16.916;2022-12-18T23:10:03;101498.67;;;-7.62;80.90
76753;BME280;65687;51.308;16.916;2022-12-18T23:15:05;101501.36;;;-7.64;80.72
76753;BME280;65687;51.308;16.916;2022-12-18T23:20:07;101500.30;;;-7.68;80.29
76753;BME280;65687;51.308;16.916;2022-12-18T23:25:09;101502.17;;;-7.76;80.60
76753;BME280;65687;51.308;16.916;2022-12-18T23:30:11;101502.06;;;-7.81;80.59
76753;BME280;65687;51.308;16.916;2022-12-18T23:35:14;101490.14;;;-7.87;80.68
76753;BME280;65687;51.308;16.916;2022-12-18T23:40:16;101481.17;;;-7.92;80.88
76753;BME280;65687;51.308;16.916;2022-12-18T23:45:18;101475.95;;;-7.88;80.75
76753;BME280;65687;51.308;16.916;2022-12-18T23:50:20;101467.14;;;-7.86;80.85
76753;BME280;65687;51.308;16.916;2022-12-18T23:55:22;101457.39;;;-7.82;80.59
